Time,TemperatureF,DewpointF,PressureIn,WindDirection,WindDirectionDegrees,WindSpeedMPH,WindSpeedGustMPH,Humidity,HourlyPrecipIn,Conditions,Clouds,dailyrainin,SolarRadiationWatts/m^2,SoftwareType,DateUTC
2013-03-07 00:12:00,49.4,41.0,30.24,SSE,161,0.0,-999.0,72,-99.99,,,0.00,0,weatherlink.com 1.10,2013-03-07 06:12:00,
2013-03-07 00:27:00,48.9,41.0,30.24,SSE,161,0.0,-999.0,74,-99.99,,,0.00,0,weatherlink.com 1.10,2013-03-07 06:27:00,
2013-03-07 00:43:00,48.3,40.0,30.23,SSE,161,0.0,-999.0,74,-99.99,,,0.00,0,weatherlink.com 1.10,2013-03-07 06:43:00,
2013-03-07 00:58:00,47.5,40.0,30.24,SSE,161,0.0,-999.0,76,-99.99,,,0.00,0,weatherlink.com 1.10,2013-03-07 06:58:00,
2013-03-07 01:13:00,46.7,40.0,30.23,SSE,160,0.0,-999.0,78,-99.99,,,0.00,0,weatherlink.com 1.10,2013-03-07 07:13:00,
2013-03-07 01:28:00,45.9,40.0,30.23,SSE,161,0.0,-999.0,79,-99.99,,,0.00,0,weatherlink.com 1.10,2013-03-07 07:28:00,
2013-03-07 01:43:00,45.0,40.0,30.23,SSE,160,0.0,-999.0,81,-99.99,,,0.00,0,weatherlink.com 1.10,2013-03-07 07:43:00,
2013-03-07 01:58:00,44.8,40.0,30.23,SSE,160,0.0,-999.0,83,-99.99,,,0.00,0,weatherlink.com 1.10,2013-03-07 07:58:00,
2013-03-07 02:13:00,44.5,40.0,30.22,SSE,160,0.0,-999.0,83,-99.99,,,0.00,0,weatherlink.com 1.10,2013-03-07 08:13:00,
2013-03-07 02:28:00,44.1,40.0,30.22,SSE,160,0.0,-999.0,84,-99.99,,,0.00,0,weatherlink.com 1.10,2013-03-07 08:28:00,
2013-03-07 02:43:00,43.8,39.0,30.21,SSE,160,0.0,-999.0,84,-99.99,,,0.00,0,weatherlink.com 1.10,2013-03-07 08:43:00,
2013-03-07 02:58:00,43.4,39.0,30.21,SSE,160,0.0,-999.0,85,-99.99,,,0.00,0,weatherlink.com 1.10,2013-03-07 08:58:00,
2013-03-07 03:13:00,43.2,39.0,30.20,SSE,160,0.0,-999.0,86,-99.99,,,0.00,0,weatherlink.com 1.10,2013-03-07 09:13:00,
2013-03-07 03:28:00,42.8,39.0,30.21,SSE,160,0.0,-999.0,86,-99.99,,,0.00,0,weatherlink.com 1.10,2013-03-07 09:28:00,
2013-03-07 03:43:00,42.3,38.0,30.20,SSE,160,0.0,-999.0,86,-99.99,,,0.00,0,weatherlink.com 1.10,2013-03-07 09:43:00,
2013-03-07 03:58:00,42.0,38.0,30.20,SSE,160,0.0,-999.0,87,-99.99,,,0.00,0,weatherlink.com 1.10,2013-03-07 09:58:00,
2013-03-07 04:13:00,41.8,38.0,30.20,SSE,160,0.0,-999.0,87,-99.99,,,0.00,0,weatherlink.com 1.10,2013-03-07 10:13:00,
2013-03-07 04:28:00,41.4,38.0,30.20,SSE,160,0.0,-999.0,88,-99.99,,,0.00,0,weatherlink.com 1.10,2013-03-07 10:28:00,
2013-03-07 04:43:00,41.4,38.0,30.20,SSE,160,0.0,-999.0,89,-99.99,,,0.00,0,weatherlink.com 1.10,2013-03-07 10:43:00,
2013-03-07 04:58:00,41.4,38.0,30.20,SSE,160,0.0,-999.0,89,-99.99,,,0.00,0,weatherlink.com 1.10,2013-03-07 10:58:00,
2013-03-07 05:13:00,41.5,39.0,30.21,SSE,161,0.0,-999.0,89,-99.99,,,0.00,0,weatherlink.com 1.10,2013-03-07 11:13:00,
2013-03-07 05:28:00,41.5,39.0,30.21,SSE,161,0.0,-999.0,89,-99.99,,,0.00,0,weatherlink.com 1.10,2013-03-07 11:28:00,
2013-03-07 05:43:00,41.4,38.0,30.21,SSE,161,0.0,-999.0,89,-99.99,,,0.00,0,weatherlink.com 1.10,2013-03-07 11:43:00,
2013-03-07 05:58:00,41.2,38.0,30.21,SSE,161,0.0,-999.0,89,-99.99,,,0.00,0,weatherlink.com 1.10,2013-03-07 11:58:00,
2013-03-07 06:13:00,40.9,38.0,30.21,SSE,161,0.0,-999.0,89,-99.99,,,0.00,0,weatherlink.com 1.10,2013-03-07 12:13:00,
2013-03-07 06:28:00,40.7,38.0,30.21,SSE,161,0.0,-999.0,90,-99.99,,,0.00,0,weatherlink.com 1.10,2013-03-07 12:28:00,
2013-03-07 06:43:00,40.7,38.0,30.22,SSE,160,0.0,-999.0,90,-99.99,,,0.00,5,weatherlink.com 1.10,2013-03-07 12:43:00,
2013-03-07 06:58:00,40.8,38.0,30.23,SSE,160,0.0,-999.0,91,-99.99,,,0.00,18,weatherlink.com 1.10,2013-03-07 12:58:00,
2013-03-07 07:13:00,41.3,39.0,30.24,SSE,160,0.0,-999.0,91,-99.99,,,0.00,35,weatherlink.com 1.10,2013-03-07 13:13:00,
2013-03-07 07:28:00,42.3,40.0,30.24,SSE,160,0.0,-999.0,92,-99.99,,,0.00,65,weatherlink.com 1.10,2013-03-07 13:28:00,
2013-03-07 07:43:00,44.6,43.0,30.25,SSE,161,0.0,-999.0,92,-99.99,,,0.00,114,weatherlink.com 1.10,2013-03-07 13:43:00,
2013-03-07 07:58:00,48.7,46.0,30.25,SSE,161,0.0,-999.0,90,-99.99,,,0.00,178,weatherlink.com 1.10,2013-03-07 13:58:00,
2013-03-07 08:14:00,53.7,48.0,30.26,NE,53,1.0,-999.0,81,-99.99,,,0.00,234,weatherlink.com 1.10,2013-03-07 14:14:00,
2013-03-07 08:29:00,57.0,50.0,30.27,ESE,118,0.0,-999.0,76,-99.99,,,0.00,287,weatherlink.com 1.10,2013-03-07 14:29:00,
2013-03-07 08:44:00,58.6,50.0,30.27,ESE,109,0.0,-999.0,74,-99.99,,,0.00,336,weatherlink.com 1.10,2013-03-07 14:44:00,
2013-03-07 08:59:00,59.6,50.0,30.27,ESE,111,1.0,-999.0,71,-99.99,,,0.00,392,weatherlink.com 1.10,2013-03-07 14:59:00,
2013-03-07 09:14:00,60.5,50.0,30.27,ESE,123,6.0,-999.0,68,-99.99,,,0.00,439,weatherlink.com 1.10,2013-03-07 15:14:00,
2013-03-07 09:29:00,61.5,50.0,30.27,SE,146,5.0,-999.0,66,-99.99,,,0.00,508,weatherlink.com 1.10,2013-03-07 15:29:00,
2013-03-07 09:44:00,61.7,50.0,30.27,ESE,111,3.0,-999.0,66,-99.99,,,0.00,441,weatherlink.com 1.10,2013-03-07 15:44:00,
2013-03-07 09:59:00,62.6,49.0,30.27,SE,126,5.0,-999.0,62,-99.99,,,0.00,533,weatherlink.com 1.10,2013-03-07 15:59:00,
2013-03-07 10:14:00,63.5,48.0,30.27,ESE,107,7.0,-999.0,58,-99.99,,,0.00,642,weatherlink.com 1.10,2013-03-07 16:14:00,
2013-03-07 10:29:00,63.4,48.0,30.27,SSE,165,5.0,-999.0,58,-99.99,,,0.00,570,weatherlink.com 1.10,2013-03-07 16:29:00,
2013-03-07 10:44:00,63.8,49.0,30.27,SE,125,4.0,-999.0,59,-99.99,,,0.00,654,weatherlink.com 1.10,2013-03-07 16:44:00,
2013-03-07 10:59:00,64.3,49.0,30.27,ESE,111,5.0,-999.0,59,-99.99,,,0.00,710,weatherlink.com 1.10,2013-03-07 16:59:00,
2013-03-07 11:14:00,64.1,49.0,30.26,ESE,123,6.0,-999.0,58,-99.99,,,0.00,313,weatherlink.com 1.10,2013-03-07 17:14:00,
2013-03-07 11:29:00,64.7,50.0,30.27,SE,128,7.0,-999.0,59,-99.99,,,0.00,770,weatherlink.com 1.10,2013-03-07 17:29:00,
2013-03-07 11:44:00,65.6,49.0,30.25,ESE,121,3.0,-999.0,55,-99.99,,,0.00,796,weatherlink.com 1.10,2013-03-07 17:44:00,
2013-03-07 11:59:00,65.6,48.0,30.26,ESE,109,5.0,-999.0,53,-99.99,,,0.00,657,weatherlink.com 1.10,2013-03-07 17:59:00,
2013-03-07 12:14:00,66.1,48.0,30.25,ESE,110,7.0,-999.0,53,-99.99,,,0.00,350,weatherlink.com 1.10,2013-03-07 18:14:00,
2013-03-07 12:29:00,66.6,47.0,30.25,ESE,103,9.0,-999.0,50,-99.99,,,0.00,798,weatherlink.com 1.10,2013-03-07 18:29:00,
2013-03-07 12:44:00,67.5,49.0,30.24,ESE,115,6.0,-999.0,51,-99.99,,,0.00,819,weatherlink.com 1.10,2013-03-07 18:44:00,
2013-03-07 12:59:00,67.2,49.0,30.23,ESE,111,4.0,-999.0,52,-99.99,,,0.00,796,weatherlink.com 1.10,2013-03-07 18:59:00,
2013-03-07 13:14:00,67.2,49.0,30.22,SSE,156,4.0,-999.0,53,-99.99,,,0.00,770,weatherlink.com 1.10,2013-03-07 19:14:00,
2013-03-07 13:44:00,66.6,50.0,30.21,ESE,111,1.0,-999.0,55,-99.99,,,0.00,766,weatherlink.com 1.10,2013-03-07 19:44:00,
2013-03-07 13:59:00,66.8,50.0,30.21,ESE,105,4.0,-999.0,55,-99.99,,,0.00,749,weatherlink.com 1.10,2013-03-07 19:59:00,
2013-03-07 14:14:00,67.0,51.0,30.21,East,98,1.0,-999.0,56,-99.99,,,0.00,719,weatherlink.com 1.10,2013-03-07 20:14:00,
2013-03-07 14:29:00,66.5,51.0,30.20,SE,132,9.0,-999.0,57,-99.99,,,0.00,696,weatherlink.com 1.10,2013-03-07 20:29:00,
2013-03-07 14:44:00,65.9,49.0,30.19,SE,137,11.0,-999.0,54,-99.99,,,0.00,647,weatherlink.com 1.10,2013-03-07 20:44:00,
2013-03-07 15:00:00,66.3,50.0,30.19,ESE,117,7.0,-999.0,57,-99.99,,,0.00,656,weatherlink.com 1.10,2013-03-07 21:00:00,
2013-03-07 15:15:00,66.3,49.0,30.19,SE,138,4.0,-999.0,54,-99.99,,,0.00,608,weatherlink.com 1.10,2013-03-07 21:15:00,
2013-03-07 15:45:00,65.3,50.0,30.18,ESE,107,6.0,-999.0,58,-99.99,,,0.00,527,weatherlink.com 1.10,2013-03-07 21:45:00,
2013-03-07 16:00:00,64.7,50.0,30.18,ESE,120,6.0,-999.0,59,-99.99,,,0.00,338,weatherlink.com 1.10,2013-03-07 22:00:00,
2013-03-07 16:15:00,64.4,50.0,30.18,ESE,119,3.0,-999.0,59,-99.99,,,0.00,439,weatherlink.com 1.10,2013-03-07 22:15:00,
2013-03-07 16:30:00,63.9,49.0,30.17,SE,126,10.0,-999.0,58,-99.99,,,0.00,232,weatherlink.com 1.10,2013-03-07 22:30:00,
2013-03-07 16:45:00,63.6,49.0,30.18,SE,125,6.0,-999.0,60,-99.99,,,0.00,297,weatherlink.com 1.10,2013-03-07 22:45:00,
2013-03-07 17:00:00,62.9,50.0,30.18,SE,130,4.0,-999.0,62,-99.99,,,0.00,216,weatherlink.com 1.10,2013-03-07 23:00:00,
2013-03-07 17:15:00,62.1,49.0,30.19,ESE,117,7.0,-999.0,62,-99.99,,,0.00,169,weatherlink.com 1.10,2013-03-07 23:15:00,
2013-03-07 17:30:00,61.8,49.0,30.18,SE,132,2.0,-999.0,63,-99.99,,,0.00,76,weatherlink.com 1.10,2013-03-07 23:30:00,
2013-03-07 17:44:00,61.1,48.0,30.19,SE,140,7.0,-999.0,63,-99.99,,,0.00,42,weatherlink.com 1.10,2013-03-07 23:44:00,
2013-03-07 17:59:00,60.6,49.0,30.19,SE,138,9.0,-999.0,65,-99.99,,,0.00,26,weatherlink.com 1.10,2013-03-07 23:59:00,
2013-03-07 18:14:00,59.9,48.0,30.19,SE,136,2.0,-999.0,66,-99.99,,,0.00,12,weatherlink.com 1.10,2013-03-08 00:14:00,
2013-03-07 18:29:00,59.4,49.0,30.20,ESE,123,2.0,-999.0,68,-99.99,,,0.00,0,weatherlink.com 1.10,2013-03-08 00:29:00,
2013-03-07 18:44:00,59.0,49.0,30.19,ESE,107,4.0,-999.0,69,-99.99,,,0.00,0,weatherlink.com 1.10,2013-03-08 00:44:00,
2013-03-07 18:59:00,58.4,49.0,30.20,ESE,111,3.0,-999.0,71,-99.99,,,0.00,0,weatherlink.com 1.10,2013-03-08 00:59:00,
2013-03-07 19:29:00,57.5,49.0,30.21,ESE,116,0.0,-999.0,73,-99.99,,,0.00,0,weatherlink.com 1.10,2013-03-08 01:29:00,
2013-03-07 19:44:00,57.2,49.0,30.21,ESE,116,1.0,-999.0,75,-99.99,,,0.00,0,weatherlink.com 1.10,2013-03-08 01:44:00,
2013-03-07 20:14:00,56.8,50.0,30.20,ESE,117,0.0,-999.0,78,-99.99,,,0.00,0,weatherlink.com 1.10,2013-03-08 02:14:00,
2013-03-07 20:29:00,56.5,50.0,30.20,ESE,117,0.0,-999.0,79,-99.99,,,0.00,0,weatherlink.com 1.10,2013-03-08 02:29:00,
2013-03-07 20:44:00,56.4,50.0,30.20,ESE,115,0.0,-999.0,80,-99.99,,,0.00,0,weatherlink.com 1.10,2013-03-08 02:44:00,
2013-03-07 20:59:00,56.3,51.0,30.20,ESE,117,2.0,-999.0,81,-99.99,,,0.00,0,weatherlink.com 1.10,2013-03-08 02:59:00,
2013-03-07 21:14:00,56.2,51.0,30.20,ESE,112,2.0,-999.0,82,-99.99,,,0.00,0,weatherlink.com 1.10,2013-03-08 03:14:00,
2013-03-07 21:29:00,56.1,51.0,30.20,ESE,118,1.0,-999.0,83,-99.99,,,0.00,0,weatherlink.com 1.10,2013-03-08 03:29:00,
2013-03-07 21:44:00,56.0,51.0,30.20,ESE,121,0.0,-999.0,84,-99.99,,,0.00,0,weatherlink.com 1.10,2013-03-08 03:44:00,
2013-03-07 21:59:00,56.0,51.0,30.19,ESE,106,4.0,-999.0,84,-99.99,,,0.00,0,weatherlink.com 1.10,2013-03-08 03:59:00,
2013-03-07 22:14:00,56.0,51.0,30.20,ESE,105,0.0,-999.0,84,-99.99,,,0.00,0,weatherlink.com 1.10,2013-03-08 04:14:00,
2013-03-07 22:29:00,55.8,51.0,30.20,ESE,105,1.0,-999.0,85,-99.99,,,0.00,0,weatherlink.com 1.10,2013-03-08 04:29:00,
2013-03-07 22:44:00,55.5,51.0,30.20,ESE,105,0.0,-999.0,85,-99.99,,,0.00,0,weatherlink.com 1.10,2013-03-08 04:44:00,
2013-03-07 22:59:00,55.0,51.0,30.20,ESE,105,0.0,-999.0,85,-99.99,,,0.00,0,weatherlink.com 1.10,2013-03-08 04:59:00,
2013-03-07 23:14:00,54.1,50.0,30.20,ESE,105,0.0,-999.0,86,-99.99,,,0.00,0,weatherlink.com 1.10,2013-03-08 05:14:00,
2013-03-07 23:29:00,53.2,50.0,30.19,ESE,105,0.0,-999.0,87,-99.99,,,0.00,0,weatherlink.com 1.10,2013-03-08 05:29:00,
2013-03-07 23:44:00,53.1,50.0,30.19,ESE,105,0.0,-999.0,89,-99.99,,,0.00,0,weatherlink.com 1.10,2013-03-08 05:44:00,
2013-03-07 23:59:00,52.9,50.0,30.19,ESE,105,0.0,-999.0,90,-99.99,,,0.00,0,weatherlink.com 1.10,2013-03-08 05:59:00,